Time;durP1;ratioP1;P1;durP2;ratioP2;P2;SDS_P1;SDS_P2;PMS_P1;PMS_P2;Temp;Humidity;BMP_temperature;BMP_pressure;BME280_temperature;BME280_humidity;BME280_pressure;Samples;Min_cycle;Max_cycle;Signal;HPM_P1;HPM_P2
2023/01/10 00:00:35;;;;;;;;;25.60;25.60;;;;;10.59;54.93;97716.38;5087206;28;8884;-76
2023/01/10 00:03:25;;;;;;;;;22.80;22.80;;;;;10.75;53.93;97719.34;5059051;28;8859;-74
2023/01/10 00:05:53;;;;;;;;;25.40;21.60;;;;;10.61;54.47;97718.00;5096954;28;8871;-75
2023/01/10 00:08:22;;;;;;;;;25.40;21.80;;;;;10.56;54.45;97716.44;5114273;27;8840;-75
2023/01/10 00:10:52;;;;;;;;;23.40;21.00;;;;;10.64;54.34;97702.28;5151409;27;8847;-75
2023/01/10 00:13:23;;;;;;;;;21.80;21.80;;;;;10.69;54.50;97723.00;5151532;27;8843;-73
2023/01/10 00:15:53;;;;;;;;;26.20;21.80;;;;;10.58;54.37;97740.72;5128596;27;8860;-74
2023/01/10 00:18:22;;;;;;;;;21.00;16.20;;;;;10.69;54.58;97733.41;5130753;27;8837;-74
2023/01/10 00:20:52;;;;;;;;;23.20;21.80;;;;;10.71;54.38;97722.03;5131015;27;8868;-75
2023/01/10 00:23:23;;;;;;;;;25.80;20.60;;;;;10.76;54.59;97734.09;5147674;27;8839;-74
2023/01/10 00:25:53;;;;;;;;;25.80;21.60;;;;;10.79;54.11;97728.78;5132828;27;8874;-75
2023/01/10 00:28:22;;;;;;;;;22.80;20.00;;;;;10.81;54.29;97732.19;5132522;27;10039;-75
2023/01/10 00:30:58;;;;;;;;;15.80;14.40;;;;;10.83;54.01;97741.69;5132295;27;8855;-75
2023/01/10 00:33:30;;;;;;;;;26.20;23.40;;;;;10.89;54.53;97735.44;5150918;27;8847;-75
2023/01/10 00:36:00;;;;;;;;;21.00;21.00;;;;;10.95;54.11;97739.59;5150674;27;8823;-74
2023/01/10 00:38:30;;;;;;;;;14.60;12.40;;;;;10.88;54.35;97746.75;5077166;27;8876;-76
2023/01/10 00:41:00;;;;;;;;;25.80;24.20;;;;;11.04;54.07;97740.16;5094640;27;8935;-74
2023/01/10 00:46:15;;;;;;;;;20.20;18.80;;;;;11.01;54.20;97737.63;5111693;27;8866;-76
2023/01/10 00:48:44;;;;;;;;;22.80;21.20;;;;;11.06;54.38;97734.91;5094094;27;8865;-76
2023/01/10 00:51:13;;;;;;;;;27.60;25.60;;;;;11.10;53.90;97745.19;5129124;27;8876;-75
2023/01/10 00:53:41;;;;;;;;;12.20;11.60;;;;;11.08;54.43;97753.97;5076724;27;8857;-76
2023/01/10 00:56:11;;;;;;;;;23.20;22.20;;;;;11.16;54.00;97758.94;5065318;28;8860;-75
2023/01/10 00:58:41;;;;;;;;;22.60;20.40;;;;;11.18;54.06;97764.97;5049334;28;8851;-74
2023/01/10 01:01:09;;;;;;;;;17.00;16.00;;;;;11.23;53.85;97756.06;5065613;28;8879;-75
2023/01/10 01:03:38;;;;;;;;;18.60;17.80;;;;;11.27;53.74;97765.50;5032761;28;8855;-74
2023/01/10 01:06:08;;;;;;;;;29.00;21.80;;;;;11.43;53.02;97758.03;5065748;28;8913;-74
2023/01/10 01:08:37;;;;;;;;;18.40;18.20;;;;;11.36;53.84;97761.75;5049074;28;8836;-75
2023/01/10 01:11:05;;;;;;;;;23.00;19.80;;;;;11.37;53.63;97755.63;5065466;28;8867;-75
2023/01/10 01:13:36;;;;;;;;;25.00;24.00;;;;;11.47;53.45;97756.16;5064771;28;8841;-77
2023/01/10 01:16:05;;;;;;;;;17.40;17.40;;;;;11.42;53.43;97769.38;5085603;28;8857;-74
2023/01/10 01:18:34;;;;;;;;;24.20;23.20;;;;;11.59;52.96;97775.81;5068901;28;8990;-75
2023/01/10 01:21:04;;;;;;;;;27.00;24.20;;;;;11.45;53.63;97779.69;5068956;28;8868;-75
2023/01/10 01:23:34;;;;;;;;;25.20;21.80;;;;;11.69;52.93;97780.66;5085626;28;8878;-74
2023/01/10 01:26:04;;;;;;;;;21.00;19.40;;;;;11.67;53.60;97785.09;5085592;28;8860;-77
2023/01/10 01:28:33;;;;;;;;;23.80;23.80;;;;;11.73;53.23;97793.63;5133610;27;8843;-76
2023/01/10 01:31:08;;;;;;;;;20.80;19.40;;;;;11.76;53.68;97797.00;5131360;27;8977;-76
2023/01/10 01:33:37;;;;;;;;;22.20;22.00;;;;;11.73;53.82;97783.19;5131395;27;8936;-74
2023/01/10 01:36:09;;;;;;;;;22.40;20.00;;;;;11.90;52.97;97797.38;5131649;27;8847;-76
2023/01/10 01:38:39;;;;;;;;;26.20;22.00;;;;;11.89;53.31;97797.44;5131663;27;8855;-76
2023/01/10 01:41:55;;;;;;;;;17.40;17.40;;;;;11.93;53.16;97787.72;5133346;27;8960;-74
2023/01/10 01:44:02;;;;;;;;;21.80;19.20;;;;;12.05;52.76;97809.06;5133670;27;8837;-74
2023/01/10 01:46:34;;;;;;;;;25.60;18.60;;;;;12.20;52.13;97812.06;5129083;27;8866;-75
2023/01/10 01:49:05;;;;;;;;;22.00;19.40;;;;;12.33;52.26;97815.97;5093705;27;8834;-74
2023/01/10 01:51:35;;;;;;;;;24.40;19.40;;;;;12.35;51.54;97832.44;5129250;27;9599;-75
2023/01/10 01:54:07;;;;;;;;;19.40;19.20;;;;;12.53;51.58;97848.38;5129161;27;8906;-75
2023/01/10 01:56:41;;;;;;;;;23.80;22.00;;;;;11.81;54.06;97875.16;5128842;27;8856;-75
2023/01/10 01:59:15;;;;;;;;;20.80;20.80;;;;;12.04;54.09;97887.50;5128740;27;8834;-74
2023/01/10 02:01:47;;;;;;;;;28.80;24.80;;;;;11.82;54.40;97905.63;5093271;27;8853;-74
2023/01/10 02:04:20;;;;;;;;;23.80;21.20;;;;;11.70;55.94;97912.06;5125550;27;8862;-73
2023/01/10 02:06:52;;;;;;;;;22.40;21.40;;;;;12.26;54.36;97912.00;5149322;27;10167;-74
2023/01/10 02:09:26;;;;;;;;;25.20;22.60;;;;;12.27;53.96;97925.94;5130981;27;8835;-76
2023/01/10 02:11:56;;;;;;;;;17.80;17.80;;;;;12.55;53.02;97927.59;5130499;27;8843;-73
2023/01/10 02:14:26;;;;;;;;;24.60;22.60;;;;;12.80;52.79;97928.47;5132535;27;8834;-72
2023/01/10 02:16:56;;;;;;;;;20.40;19.80;;;;;13.10;51.51;97924.78;5128400;27;8877;-73
2023/01/10 02:19:32;;;;;;;;;22.80;20.40;;;;;13.34;51.22;97933.50;5142784;27;8954;-76
2023/01/10 02:22:30;;;;;;;;;20.20;18.60;;;;;13.29;50.82;97940.66;5130174;27;8934;-73
2023/01/10 02:25:28;;;;;;;;;23.00;20.20;;;;;13.32;51.26;97937.97;5147667;27;8862;-74
2023/01/10 02:28:20;;;;;;;;;20.00;19.20;;;;;12.98;51.92;97953.09;5148796;27;8899;-74
2023/01/10 02:31:26;;;;;;;;;21.20;20.20;;;;;13.23;51.52;97953.06;5148354;27;8831;-74
2023/01/10 02:34:02;;;;;;;;;20.40;19.40;;;;;13.23;51.27;97949.56;5127837;27;8849;-73
2023/01/10 02:36:41;;;;;;;;;22.80;20.20;;;;;13.19;50.78;97956.69;5125172;27;8831;-74
2023/01/10 02:39:18;;;;;;;;;22.60;20.20;;;;;13.58;50.64;97952.69;5131892;27;8839;-75
2023/01/10 02:41:57;;;;;;;;;19.00;17.60;;;;;13.67;50.21;97954.06;5117374;27;8903;-74
2023/01/10 02:44:33;;;;;;;;;19.00;16.80;;;;;13.59;50.60;97965.72;5081759;27;8847;-76
2023/01/10 02:47:03;;;;;;;;;21.00;20.80;;;;;13.09;51.54;97973.66;5152554;27;8828;-74
2023/01/10 02:49:43;;;;;;;;;25.00;22.00;;;;;13.04;52.94;97984.31;5140937;27;8856;-76
2023/01/10 02:52:15;;;;;;;;;20.60;20.00;;;;;13.21;54.02;97986.31;5147381;27;8820;-74
2023/01/10 02:54:45;;;;;;;;;23.80;19.00;;;;;13.51;53.64;97998.34;5152494;27;8855;-74
2023/01/10 02:57:40;;;;;;;;;25.20;22.60;;;;;13.84;53.88;98004.91;5082049;27;8947;-75
2023/01/10 03:00:27;;;;;;;;;23.00;20.60;;;;;13.72;55.03;98007.16;5153009;27;8881;-74
2023/01/10 03:03:31;;;;;;;;;15.20;14.60;;;;;13.73;56.22;98020.19;5152303;27;8870;-75
2023/01/10 03:06:17;;;;;;;;;28.20;24.20;;;;;12.85;61.67;98040.78;5142747;27;8900;-74
2023/01/10 03:08:53;;;;;;;;;25.00;25.00;;;;;12.99;61.67;98049.00;5135358;27;8823;-75
2023/01/10 03:11:39;;;;;;;;;25.20;22.00;;;;;12.83;62.71;98048.66;5113495;27;8895;-73
2023/01/10 03:14:15;;;;;;;;;21.00;17.80;;;;;12.91;63.34;98044.94;5113226;27;8845;-73
2023/01/10 03:16:48;;;;;;;;;19.20;18.00;;;;;11.46;69.21;98065.09;5131715;27;8866;-75
2023/01/10 03:19:21;;;;;;;;;13.40;11.40;;;;;10.62;72.24;98081.19;5087777;28;8849;-75
2023/01/10 03:21:56;;;;;;;;;12.80;12.40;;;;;10.23;73.51;98084.66;5100008;28;8864;-76
2023/01/10 03:24:28;;;;;;;;;9.00;8.80;;;;;9.78;74.44;98095.19;5057668;28;8866;-73
2023/01/10 03:27:03;;;;;;;;;9.40;7.60;;;;;9.56;75.24;98099.97;5090476;28;8818;-74
2023/01/10 03:29:42;;;;;;;;;5.00;5.00;;;;;9.21;76.34;98111.91;5076248;28;8861;-73
2023/01/10 03:32:14;;;;;;;;;5.00;5.00;;;;;9.81;74.58;98104.66;5108203;28;9016;-74
2023/01/10 03:34:44;;;;;;;;;8.00;6.20;;;;;9.87;73.17;98108.03;5074152;28;8857;-73
2023/01/10 03:37:20;;;;;;;;;6.00;5.80;;;;;9.34;73.50;98112.56;5070532;28;8852;-73
2023/01/10 03:39:57;;;;;;;;;5.60;5.60;;;;;8.86;74.87;98123.78;5087538;28;8872;-73
2023/01/10 03:44:42;;;;;;;;;2.80;2.80;;;;;8.96;75.27;98127.94;5086785;28;9540;-74
2023/01/10 03:45:28;;;;;;;;;4.20;4.20;;;;;8.73;76.78;98132.66;5087395;28;8965;-73
2023/01/10 03:48:02;;;;;;;;;5.00;5.00;;;;;9.13;74.83;98134.59;5087529;28;8868;-74
2023/01/10 03:50:32;;;;;;;;;5.40;3.60;;;;;9.36;73.76;98148.03;5118692;27;8825;-73
2023/01/10 03:53:02;;;;;;;;;5.00;5.00;;;;;9.57;72.42;98161.56;5112391;27;8968;-74
2023/01/10 03:55:33;;;;;;;;;6.00;6.00;;;;;9.86;71.55;98165.31;5130993;27;8842;-73
2023/01/10 03:58:02;;;;;;;;;5.40;4.60;;;;;9.87;71.58;98164.44;5112962;27;8849;-75
2023/01/10 04:00:31;;;;;;;;;3.40;3.40;;;;;10.32;70.06;98164.38;5144123;27;8849;-74
2023/01/10 04:02:59;;;;;;;;;5.00;5.00;;;;;9.97;70.74;98165.97;5131012;27;8932;-74
2023/01/10 04:05:28;;;;;;;;;5.40;5.40;;;;;9.67;71.92;98170.88;5131337;27;9579;-74
2023/01/10 04:07:57;;;;;;;;;6.40;6.40;;;;;10.13;70.87;98169.09;5131479;27;8934;-75
2023/01/10 04:10:28;;;;;;;;;5.40;5.40;;;;;10.30;70.24;98168.75;5112323;27;8864;-74
2023/01/10 04:13:00;;;;;;;;;8.80;7.00;;;;;10.17;69.95;98157.75;5095264;27;8977;-74
2023/01/10 04:15:29;;;;;;;;;4.20;4.20;;;;;10.35;69.51;98169.53;5130899;27;9613;-74
2023/01/10 04:17:57;;;;;;;;;3.80;3.80;;;;;9.82;69.98;98161.06;5142798;27;8950;-74
2023/01/10 04:20:26;;;;;;;;;3.40;3.40;;;;;9.76;70.36;98177.66;5152053;27;8847;-77
2023/01/10 04:22:55;;;;;;;;;0.00;0.00;;;;;9.80;70.06;98173.25;5151343;27;8843;-73
2023/01/10 04:25:24;;;;;;;;;3.00;2.00;;;;;9.75;69.07;98188.97;5151737;27;8823;-73
2023/01/10 04:27:56;;;;;;;;;1.20;0.40;;;;;10.10;68.76;98188.25;5151015;27;8878;-73
2023/01/10 04:30:24;;;;;;;;;4.60;1.80;;;;;9.79;68.75;98198.41;5151203;27;8835;-74
2023/01/10 04:32:53;;;;;;;;;10.40;10.00;;;;;9.12;70.17;98211.75;5131043;27;8851;-75
2023/01/10 04:35:22;;;;;;;;;6.60;6.60;;;;;9.34;70.31;98219.22;5132611;27;8851;-75
2023/01/10 04:37:51;;;;;;;;;2.00;2.00;;;;;8.81;71.50;98233.91;5132499;27;8907;-74
2023/01/10 04:40:22;;;;;;;;;5.40;3.00;;;;;9.06;70.23;98234.41;5132472;27;8854;-75
2023/01/10 04:42:50;;;;;;;;;3.00;3.00;;;;;9.41;69.53;98222.56;5129383;27;8833;-75
2023/01/10 04:45:21;;;;;;;;;2.00;2.00;;;;;9.35;68.53;98208.75;5130688;27;8898;-74
2023/01/10 04:47:50;;;;;;;;;2.20;2.20;;;;;9.15;69.67;98200.47;5129170;27;8849;-74
2023/01/10 04:50:19;;;;;;;;;2.00;2.00;;;;;8.84;70.67;98194.88;5111069;27;8923;-73
2023/01/10 04:52:48;;;;;;;;;2.00;2.00;;;;;8.20;73.25;98171.50;5132160;27;8931;-74
2023/01/10 04:55:17;;;;;;;;;2.00;2.00;;;;;7.98;74.22;98152.75;5150284;27;8831;-76
2023/01/10 04:57:46;;;;;;;;;3.20;1.80;;;;;7.70;74.91;98170.38;5132069;27;8903;-75
2023/01/10 05:00:15;;;;;;;;;2.20;2.20;;;;;7.47;76.25;98184.47;5145239;27;8830;-76
2023/01/10 05:02:45;;;;;;;;;5.60;4.20;;;;;7.67;75.54;98206.72;5059606;27;8903;-75
2023/01/10 05:05:14;;;;;;;;;2.00;2.00;;;;;7.92;74.61;98212.50;5112260;27;8857;-74
2023/01/10 05:07:46;;;;;;;;;1.00;1.00;;;;;8.21;73.31;98201.78;5096687;27;8840;-76
2023/01/10 05:10:15;;;;;;;;;1.00;1.00;;;;;8.05;73.77;98229.66;5131492;27;8831;-75
2023/01/10 05:12:44;;;;;;;;;1.20;1.20;;;;;8.36;72.86;98260.47;5097682;27;8859;-74
2023/01/10 05:15:13;;;;;;;;;5.00;2.00;;;;;8.58;71.82;98281.84;5087999;28;9080;-75
2023/01/10 05:17:42;;;;;;;;;1.20;1.20;;;;;8.52;71.74;98274.16;5085572;28;8861;-75
2023/01/10 05:20:13;;;;;;;;;22.20;15.40;;;;;8.41;72.26;98274.25;5085584;28;8980;-74
2023/01/10 05:22:42;;;;;;;;;2.60;2.60;;;;;8.60;70.77;98272.31;5085187;28;9004;-76
2023/01/10 05:25:11;;;;;;;;;2.60;2.60;;;;;8.18;71.67;98275.41;5065004;28;8848;-76
2023/01/10 05:27:41;;;;;;;;;3.40;3.40;;;;;8.06;72.43;98272.06;5066139;28;8867;-75
2023/01/10 05:30:12;;;;;;;;;3.20;3.20;;;;;8.02;73.04;98278.19;5048588;28;8944;-75
2023/01/10 05:32:41;;;;;;;;;4.60;4.60;;;;;7.88;73.74;98280.91;5065048;28;8886;-77
2023/01/10 05:35:10;;;;;;;;;3.80;3.80;;;;;7.77;74.48;98276.69;5077525;28;8954;-76
2023/01/10 05:37:40;;;;;;;;;9.00;9.00;;;;;8.30;72.53;98265.72;5044964;28;8839;-77
2023/01/10 05:40:10;;;;;;;;;2.20;2.20;;;;;8.19;71.73;98268.47;5005223;28;9066;-74
2023/01/10 05:42:38;;;;;;;;;2.60;2.60;;;;;8.23;72.38;98261.50;4987276;28;8874;-76
2023/01/10 05:45:08;;;;;;;;;3.80;3.80;;;;;8.84;70.28;98268.50;5003717;28;8870;-75
2023/01/10 05:47:37;;;;;;;;;4.40;4.40;;;;;8.58;70.37;98274.94;4969830;28;9713;-76
2023/01/10 05:50:07;;;;;;;;;5.40;5.40;;;;;8.82;69.86;98288.47;5006297;28;8849;-74
2023/01/10 05:52:35;;;;;;;;;2.80;2.80;;;;;8.75;69.19;98289.44;5025195;28;8859;-74
2023/01/10 05:55:07;;;;;;;;;5.60;5.40;;;;;9.20;68.45;98287.03;5046114;28;8886;-75
2023/01/10 05:57:35;;;;;;;;;3.20;2.20;;;;;9.35;67.84;98289.41;5066965;28;8920;-75
2023/01/10 06:00:06;;;;;;;;;4.20;2.40;;;;;9.25;66.57;98292.19;5046339;28;8874;-75
2023/01/10 06:02:38;;;;;;;;;2.40;2.40;;;;;9.59;66.08;98310.72;4969824;28;8851;-75
2023/01/10 06:05:08;;;;;;;;;0.80;0.80;;;;;9.84;65.35;98323.31;5063274;28;8944;-73
2023/01/10 06:07:37;;;;;;;;;2.40;2.40;;;;;9.24;66.34;98332.06;5063165;28;8990;-74
2023/01/10 06:10:08;;;;;;;;;2.20;2.20;;;;;9.12;66.18;98336.56;5126187;27;8839;-73
2023/01/10 06:12:39;;;;;;;;;3.20;3.20;;;;;9.13;66.39;98327.91;5110327;27;8857;-75
2023/01/10 06:15:09;;;;;;;;;4.60;4.20;;;;;9.28;66.15;98342.44;5113079;27;8847;-73
2023/01/10 06:17:38;;;;;;;;;2.00;2.00;;;;;9.33;65.01;98344.94;5125617;27;8830;-74
2023/01/10 06:20:08;;;;;;;;;2.80;2.00;;;;;9.29;64.80;98346.75;5113805;27;8845;-73
2023/01/10 06:22:37;;;;;;;;;5.40;4.60;;;;;9.50;64.86;98358.56;5131874;27;8849;-74
2023/01/10 06:25:08;;;;;;;;;2.20;2.20;;;;;9.65;64.21;98359.22;5118775;27;8845;-74
2023/01/10 06:27:39;;;;;;;;;3.00;3.00;;;;;9.40;64.44;98366.53;5113184;27;8860;-76
2023/01/10 06:30:09;;;;;;;;;4.20;3.00;;;;;9.57;63.98;98386.22;5125655;27;8831;-75
2023/01/10 06:32:39;;;;;;;;;2.00;2.00;;;;;9.92;63.67;98392.63;5143374;27;9603;-75
2023/01/10 06:35:08;;;;;;;;;6.00;6.00;;;;;9.87;63.27;98407.44;5131813;27;8857;-73
2023/01/10 06:37:38;;;;;;;;;3.40;3.00;;;;;9.57;62.65;98416.59;5114236;27;8958;-75
2023/01/10 06:40:10;;;;;;;;;3.00;3.00;;;;;9.59;63.04;98411.38;5131175;27;8833;-74
2023/01/10 06:42:40;;;;;;;;;5.80;5.80;;;;;9.55;63.37;98418.38;5113191;27;9632;-75
2023/01/10 06:45:10;;;;;;;;;14.80;9.40;;;;;9.43;64.02;98429.78;5132349;27;8833;-74
2023/01/10 06:47:38;;;;;;;;;5.60;4.80;;;;;9.73;63.76;98430.22;5115308;27;8849;-74
2023/01/10 06:50:09;;;;;;;;;6.20;6.20;;;;;9.33;64.47;98430.81;5132326;27;8884;-74
2023/01/10 06:52:37;;;;;;;;;8.20;7.40;;;;;9.21;64.32;98431.84;5114336;27;8879;-74
2023/01/10 06:55:09;;;;;;;;;10.00;10.00;;;;;9.07;65.30;98431.13;5132589;27;9668;-74
2023/01/10 06:57:38;;;;;;;;;5.00;5.00;;;;;8.32;67.00;98438.84;5113716;27;8841;-73
2023/01/10 07:00:09;;;;;;;;;4.60;4.20;;;;;8.75;66.35;98454.06;5099319;27;8853;-75
2023/01/10 07:02:38;;;;;;;;;5.80;5.20;;;;;8.92;65.81;98459.06;5115012;27;8853;-75
2023/01/10 07:05:07;;;;;;;;;5.00;5.00;;;;;9.37;65.46;98461.09;5132492;27;8837;-73
2023/01/10 07:07:39;;;;;;;;;9.40;8.80;;;;;9.37;64.60;98440.28;5081223;27;8829;-74
2023/01/10 07:10:11;;;;;;;;;7.00;6.00;;;;;9.23;64.54;98439.63;5113918;27;8837;-74
2023/01/10 07:12:39;;;;;;;;;6.00;5.20;;;;;8.67;65.69;98450.66;5113749;27;8853;-74
2023/01/10 07:15:09;;;;;;;;;6.00;5.00;;;;;8.93;65.33;98462.50;5113910;27;8842;-73
2023/01/10 07:17:38;;;;;;;;;5.40;5.40;;;;;8.58;66.17;98462.03;5113647;27;8837;-76
2023/01/10 07:20:08;;;;;;;;;5.00;5.00;;;;;9.11;65.66;98464.03;5108976;27;8840;-75
2023/01/10 07:22:36;;;;;;;;;7.40;6.40;;;;;9.27;64.90;98469.91;5137113;27;8947;-78
2023/01/10 07:25:06;;;;;;;;;8.00;8.00;;;;;9.28;64.62;98476.81;5129310;27;8860;-75
2023/01/10 07:27:37;;;;;;;;;8.60;6.00;;;;;9.29;64.79;98479.41;5113230;27;8858;-75
2023/01/10 07:30:08;;;;;;;;;7.40;6.60;;;;;9.22;64.80;98490.75;5112284;27;8937;-73
2023/01/10 07:32:36;;;;;;;;;11.00;10.60;;;;;9.44;64.16;98500.91;5112233;27;8944;-75
2023/01/10 07:35:05;;;;;;;;;13.20;13.20;;;;;9.26;64.45;98495.06;5129172;27;8880;-75
2023/01/10 07:37:34;;;;;;;;;18.60;14.60;;;;;9.68;63.68;98500.59;5092705;27;8845;-75
2023/01/10 07:40:03;;;;;;;;;20.20;16.80;;;;;9.78;63.13;98503.06;5140758;27;8827;-75
2023/01/10 07:42:32;;;;;;;;;9.00;9.00;;;;;9.37;64.48;98505.31;5113835;27;8843;-75
2023/01/10 07:45:02;;;;;;;;;10.20;9.80;;;;;9.05;65.61;98513.50;5139380;27;8862;-77
2023/01/10 07:47:31;;;;;;;;;8.80;8.40;;;;;9.17;65.05;98510.78;5133833;27;8855;-74
2023/01/10 07:50:00;;;;;;;;;9.60;7.80;;;;;9.24;63.96;98521.97;5136654;27;8820;-73
2023/01/10 07:52:28;;;;;;;;;3.00;3.00;;;;;9.23;63.83;98523.72;5151713;27;8844;-75
2023/01/10 07:54:57;;;;;;;;;6.00;6.00;;;;;9.16;63.50;98516.84;5116594;27;8854;-76
2023/01/10 07:57:26;;;;;;;;;8.60;8.20;;;;;8.77;65.58;98519.88;5133762;27;8851;-75
2023/01/10 07:59:55;;;;;;;;;5.00;5.00;;;;;9.02;64.62;98530.03;5151966;27;8855;-75
2023/01/10 08:02:25;;;;;;;;;8.40;5.00;;;;;8.91;65.58;98532.72;5116087;27;8839;-76
2023/01/10 08:04:54;;;;;;;;;6.00;6.00;;;;;8.55;65.23;98552.97;5152629;27;8823;-75
2023/01/10 08:07:23;;;;;;;;;6.40;6.40;;;;;8.64;66.19;98551.16;5134924;27;8876;-73
2023/01/10 08:09:52;;;;;;;;;5.80;5.60;;;;;8.77;66.16;98564.06;5096149;27;8841;-76
2023/01/10 08:12:23;;;;;;;;;7.00;5.80;;;;;8.51;65.70;98559.09;5131297;27;8861;-74
2023/01/10 08:14:52;;;;;;;;;7.60;7.60;;;;;8.18;66.74;98568.84;5130229;27;8829;-74
2023/01/10 08:17:21;;;;;;;;;7.40;5.60;;;;;7.96;68.17;98560.31;5130988;27;9595;-76
2023/01/10 08:19:52;;;;;;;;;6.00;4.60;;;;;8.46;67.06;98560.84;5112754;27;8922;-73
2023/01/10 08:22:20;;;;;;;;;6.00;4.20;;;;;8.56;66.56;98557.31;5131522;27;8957;-75
2023/01/10 08:24:49;;;;;;;;;5.60;5.60;;;;;8.59;65.51;98570.28;5081267;27;8836;-75
2023/01/10 08:27:18;;;;;;;;;9.80;8.60;;;;;8.64;65.73;98571.97;5151222;27;8870;-74
2023/01/10 08:29:47;;;;;;;;;6.40;5.40;;;;;8.93;65.42;98571.72;5149650;27;8874;-76
2023/01/10 08:32:15;;;;;;;;;8.60;8.60;;;;;8.20;66.52;98571.41;5115911;27;8851;-77
2023/01/10 08:34:44;;;;;;;;;9.20;9.20;;;;;7.88;68.42;98582.88;5151599;27;8859;-76
2023/01/10 08:37:14;;;;;;;;;9.00;9.00;;;;;8.33;67.24;98586.03;5132126;27;8989;-74
2023/01/10 08:39:43;;;;;;;;;5.00;5.00;;;;;8.59;67.20;98582.41;5132561;27;8851;-74
2023/01/10 08:42:12;;;;;;;;;5.60;5.60;;;;;8.54;65.91;98592.84;5132185;27;8847;-75
2023/01/10 08:44:41;;;;;;;;;5.80;5.80;;;;;8.33;66.11;98603.34;5129665;27;8837;-74
2023/01/10 08:47:09;;;;;;;;;2.40;2.40;;;;;8.16;65.90;98609.50;5112900;27;9637;-78
2023/01/10 08:49:38;;;;;;;;;5.20;5.20;;;;;8.71;65.47;98620.41;5130381;27;8833;-76
2023/01/10 08:52:07;;;;;;;;;3.40;3.40;;;;;9.04;64.10;98623.63;5076790;27;8841;-74
2023/01/10 08:54:37;;;;;;;;;4.60;4.60;;;;;8.70;64.59;98631.72;5111613;27;8868;-76
2023/01/10 08:57:05;;;;;;;;;6.00;5.40;;;;;9.10;63.93;98629.63;5111279;27;8888;-74
2023/01/10 08:59:35;;;;;;;;;7.60;7.40;;;;;9.14;63.39;98635.66;5130257;27;8833;-74
2023/01/10 09:02:04;;;;;;;;;7.20;6.00;;;;;9.51;62.75;98619.69;5111023;27;8853;-74
2023/01/10 09:04:33;;;;;;;;;5.60;5.60;;;;;8.87;63.07;98619.44;5111599;27;8868;-75
2023/01/10 09:07:01;;;;;;;;;3.20;3.20;;;;;8.87;63.97;98626.38;5129954;27;8853;-75
2023/01/10 09:09:30;;;;;;;;;5.00;5.00;;;;;9.19;63.16;98623.47;5111725;27;8822;-75
2023/01/10 09:12:00;;;;;;;;;3.80;3.80;;;;;9.11;62.93;98617.47;5094490;27;8972;-75
2023/01/10 09:14:29;;;;;;;;;4.60;3.20;;;;;9.31;63.14;98618.13;5129277;27;8853;-74
2023/01/10 09:16:58;;;;;;;;;3.20;3.20;;;;;8.83;64.01;98625.53;5111031;27;8850;-75
2023/01/10 09:19:26;;;;;;;;;2.00;2.00;;;;;9.05;64.05;98618.38;5093769;27;8841;-75
2023/01/10 09:21:55;;;;;;;;;6.40;6.40;;;;;9.23;62.89;98619.97;5110684;27;8833;-74
2023/01/10 09:24:25;;;;;;;;;7.00;6.80;;;;;8.80;64.39;98622.09;5111224;27;8841;-76
2023/01/10 09:26:53;;;;;;;;;9.00;5.80;;;;;9.02;64.10;98625.34;5094162;27;9714;-75
2023/01/10 09:29:24;;;;;;;;;4.20;4.20;;;;;9.18;63.28;98627.78;5075751;27;8846;-74
2023/01/10 09:31:52;;;;;;;;;5.80;5.80;;;;;9.21;63.47;98624.31;5110920;27;8841;-76
2023/01/10 09:34:23;;;;;;;;;3.20;3.20;;;;;9.34;63.12;98623.31;5141556;27;8866;-76
2023/01/10 09:36:53;;;;;;;;;6.20;6.20;;;;;9.82;63.16;98624.50;5131232;27;8947;-75
2023/01/10 09:39:24;;;;;;;;;10.40;10.00;;;;;9.44;63.26;98625.81;5149972;27;8919;-75
2023/01/10 09:42:08;;;;;;;;;9.60;9.00;;;;;9.66;63.33;98629.03;5150200;27;8831;-75
2023/01/10 09:44:50;;;;;;;;;10.40;10.40;;;;;9.94;62.29;98630.44;5149823;27;9002;-74
2023/01/10 09:47:30;;;;;;;;;14.60;13.60;;;;;9.54;64.00;98625.69;5131467;27;8875;-75
2023/01/10 09:50:10;;;;;;;;;11.60;10.80;;;;;9.35;63.81;98608.56;5138799;27;8826;-75
2023/01/10 09:52:44;;;;;;;;;11.80;10.80;;;;;9.15;65.09;98622.63;5129039;27;8892;-74
2023/01/10 09:55:26;;;;;;;;;9.60;9.60;;;;;9.00;66.35;98619.31;5128880;27;8888;-75
2023/01/10 09:57:58;;;;;;;;;12.80;11.20;;;;;9.28;65.43;98610.38;5129048;27;8861;-77
2023/01/10 10:00:37;;;;;;;;;17.00;14.20;;;;;9.30;65.39;98608.63;5110856;27;9033;-75
2023/01/10 10:03:20;;;;;;;;;14.40;12.60;;;;;9.34;64.54;98602.50;5127794;27;8872;-75
2023/01/10 10:05:50;;;;;;;;;16.80;14.00;;;;;9.47;65.31;98598.03;5128238;27;8847;-74
2023/01/10 10:08:23;;;;;;;;;19.60;18.20;;;;;9.51;64.50;98604.91;5149720;27;8940;-75
2023/01/10 10:11:02;;;;;;;;;18.00;15.20;;;;;9.72;64.49;98602.94;5149367;27;8831;-76
2023/01/10 10:13:44;;;;;;;;;14.60;14.60;;;;;9.60;64.54;98600.47;5130897;27;8858;-75
2023/01/10 10:16:27;;;;;;;;;10.00;9.00;;;;;9.98;63.22;98607.81;5130835;27;8900;-76
2023/01/10 10:19:04;;;;;;;;;14.20;13.40;;;;;9.92;63.80;98610.47;5149733;27;8882;-74
2023/01/10 10:21:43;;;;;;;;;11.80;11.60;;;;;10.33;63.24;98599.50;5148019;27;9647;-75
2023/01/10 10:24:33;;;;;;;;;13.40;12.20;;;;;10.06;62.82;98605.09;5130873;27;8919;-76
2023/01/10 10:27:12;;;;;;;;;7.60;7.40;;;;;10.03;63.94;98610.34;5078891;27;8827;-76
2023/01/10 10:29:56;;;;;;;;;13.20;13.20;;;;;9.39;65.82;98618.03;5150487;27;8893;-74
2023/01/10 10:32:39;;;;;;;;;13.40;13.40;;;;;9.80;64.16;98616.72;5149581;27;8949;-74
2023/01/10 10:35:15;;;;;;;;;10.40;10.40;;;;;10.01;63.83;98609.50;5114294;27;8839;-76
2023/01/10 10:37:48;;;;;;;;;10.00;10.00;;;;;10.07;63.93;98610.28;5150151;27;8862;-76
2023/01/10 10:40:20;;;;;;;;;13.00;12.20;;;;;10.44;62.75;98619.38;5141347;27;8848;-75
2023/01/10 10:42:52;;;;;;;;;13.60;13.60;;;;;10.17;62.91;98604.94;5129928;27;8845;-74
2023/01/10 10:45:38;;;;;;;;;15.80;12.60;;;;;10.38;62.93;98606.41;5110394;27;8852;-75
2023/01/10 10:48:14;;;;;;;;;15.80;14.60;;;;;9.99;63.60;98600.84;5127682;27;8829;-76
2023/01/10 10:50:51;;;;;;;;;13.00;11.80;;;;;9.47;65.37;98603.22;5136059;27;8843;-76
2023/01/10 10:53:20;;;;;;;;;14.00;14.00;;;;;9.92;64.83;98598.34;5078900;27;9622;-76
2023/01/10 10:55:49;;;;;;;;;14.20;13.20;;;;;10.05;64.31;98599.00;5130547;27;8847;-75
2023/01/10 10:58:18;;;;;;;;;11.00;10.60;;;;;9.64;65.21;98602.16;5130977;27;8852;-75
2023/01/10 11:00:47;;;;;;;;;12.60;12.60;;;;;9.28;66.97;98593.88;5151443;27;8943;-74
2023/01/10 11:03:27;;;;;;;;;9.80;9.80;;;;;9.26;66.84;98590.44;5082847;27;8863;-75
2023/01/10 11:05:57;;;;;;;;;11.80;11.80;;;;;9.39;67.01;98593.78;5153096;27;8904;-75
2023/01/10 11:08:28;;;;;;;;;17.00;13.00;;;;;9.35;66.73;98592.94;5134251;27;8855;-74
2023/01/10 11:10:59;;;;;;;;;12.60;10.00;;;;;8.76;68.78;98598.72;5082095;27;8942;-75
2023/01/10 11:13:41;;;;;;;;;10.80;9.60;;;;;8.23;72.71;98606.91;5152722;27;8824;-73
2023/01/10 11:16:24;;;;;;;;;18.00;17.00;;;;;8.67;71.36;98600.53;5134147;27;8866;-75
2023/01/10 11:19:20;;;;;;;;;11.20;11.20;;;;;9.04;70.15;98610.63;5134334;27;8862;-76
2023/01/10 11:21:57;;;;;;;;;13.20;11.40;;;;;8.62;71.10;98618.78;5152609;27;8863;-75
2023/01/10 11:24:30;;;;;;;;;13.60;13.00;;;;;8.89;70.20;98624.63;5151368;27;8839;-74
2023/01/10 11:27:01;;;;;;;;;17.20;13.80;;;;;9.22;69.29;98622.56;5132337;27;8871;-74
2023/01/10 11:29:38;;;;;;;;;17.20;15.20;;;;;9.02;70.31;98622.75;5091900;28;8970;-74
2023/01/10 11:32:14;;;;;;;;;19.60;18.00;;;;;8.97;70.72;98623.66;5092576;28;8974;-75
2023/01/10 11:34:52;;;;;;;;;15.20;15.20;;;;;9.31;69.68;98619.88;5073002;28;8879;-75
2023/01/10 11:37:27;;;;;;;;;25.40;20.00;;;;;9.62;68.25;98610.00;5071332;28;8855;-74
2023/01/10 11:40:17;;;;;;;;;28.50;23.50;;;;;9.13;68.55;98620.91;5056463;28;8843;-74
2023/01/10 11:42:47;;;;;;;;;26.60;21.20;;;;;9.51;68.53;98610.13;5090214;28;8840;-75
2023/01/10 11:45:28;;;;;;;;;20.25;20.25;;;;;8.97;69.81;98609.81;5105857;28;8863;-75
2023/01/10 11:48:00;;;;;;;;;18.20;18.20;;;;;8.78;71.00;98603.91;5088984;28;9759;-75
2023/01/10 11:50:33;;;;;;;;;26.50;25.00;;;;;8.63;71.98;98602.28;5090304;28;8832;-75
2023/01/10 11:53:02;;;;;;;;;16.20;13.20;;;;;8.32;72.66;98605.09;5089215;28;8887;-75
2023/01/10 11:55:37;;;;;;;;;16.60;14.60;;;;;8.54;73.09;98605.84;5090215;28;9435;-75
2023/01/10 11:58:08;;;;;;;;;13.00;13.00;;;;;8.50;71.15;98598.91;5088927;28;8847;-77
2023/01/10 12:00:41;;;;;;;;;13.60;13.00;;;;;8.87;69.60;98606.44;5089104;28;8820;-74
2023/01/10 12:03:18;;;;;;;;;14.80;13.40;;;;;8.97;70.13;98609.81;5089234;28;8855;-73
2023/01/10 12:05:55;;;;;;;;;9.20;8.00;;;;;9.15;69.01;98609.63;5090215;28;8957;-75